createdAt,value
2023-02-03T00:00:48.832Z,7.45
2023-02-03T00:01:48.807Z,7.27
2023-02-03T00:02:48.844Z,7.37
2023-02-03T00:03:48.778Z,7.38
2023-02-03T00:04:48.815Z,7.60
2023-02-03T00:05:49.734Z,7.67
2023-02-03T00:06:48.744Z,7.74
2023-02-03T00:07:48.762Z,7.69
2023-02-03T00:08:48.733Z,7.77
2023-02-03T00:09:48.739Z,7.56
2023-02-03T00:10:48.736Z,7.63
2023-02-03T00:11:48.753Z,7.67
2023-02-03T00:12:48.747Z,7.77
2023-02-03T00:13:48.738Z,7.72
2023-02-03T00:14:48.728Z,7.69
2023-02-03T00:15:48.728Z,7.66
2023-02-03T00:16:48.776Z,7.69
2023-02-03T00:17:48.738Z,7.78
2023-02-03T00:18:48.684Z,7.74
2023-02-03T00:19:48.673Z,7.56
2023-02-03T00:20:48.669Z,7.62
2023-02-03T00:21:48.694Z,7.60
2023-02-03T00:22:48.666Z,7.78
2023-02-03T00:23:48.670Z,7.69
2023-02-03T00:24:48.642Z,7.79
2023-02-03T00:25:48.661Z,7.78
2023-02-03T00:26:48.695Z,7.87
2023-02-03T00:27:48.687Z,7.85
2023-02-03T00:28:48.634Z,7.97
2023-02-03T00:29:48.617Z,7.84
2023-02-03T00:30:48.621Z,7.59
2023-02-03T00:31:48.729Z,7.42
2023-02-03T00:32:48.625Z,7.47
2023-02-03T00:33:48.607Z,7.40
2023-02-03T00:34:48.589Z,7.67
2023-02-03T00:35:48.597Z,7.63
2023-02-03T00:36:48.587Z,7.77
2023-02-03T00:37:48.575Z,7.71
2023-02-03T00:38:48.559Z,7.75
2023-02-03T00:39:48.574Z,7.87
2023-02-03T00:40:48.567Z,8.00
2023-02-03T00:41:48.545Z,7.81
2023-02-03T00:42:48.596Z,7.59
2023-02-03T00:43:48.543Z,7.50
2023-02-03T00:44:48.539Z,7.49
2023-02-03T00:45:48.576Z,7.53
2023-02-03T00:46:48.554Z,7.59
2023-02-03T00:47:48.514Z,7.71
2023-02-03T00:48:48.504Z,7.71
2023-02-03T00:49:48.570Z,7.67
2023-02-03T00:50:48.512Z,7.74
2023-02-03T00:51:48.561Z,7.75
2023-02-03T00:52:48.484Z,7.78
2023-02-03T00:53:48.520Z,7.77
2023-02-03T00:54:48.521Z,7.85
2023-02-03T00:55:48.485Z,7.90
2023-02-03T00:56:48.494Z,7.78
2023-02-03T00:57:48.476Z,7.79
2023-02-03T00:58:48.447Z,7.92
2023-02-03T00:59:48.487Z,7.97
2023-02-03T01:00:48.502Z,8.07
2023-02-03T01:01:48.449Z,8.14
2023-02-03T01:02:48.434Z,8.11
2023-02-03T01:03:48.439Z,8.29
2023-02-03T01:04:48.415Z,8.30
2023-02-03T01:05:48.479Z,8.28
2023-02-03T01:06:48.403Z,8.28
2023-02-03T01:07:48.408Z,8.40
2023-02-03T01:08:48.439Z,8.54
2023-02-03T01:09:48.410Z,8.44
2023-02-03T01:10:48.399Z,8.40
2023-02-03T01:11:48.371Z,8.48
2023-02-03T01:12:48.369Z,8.45
2023-02-03T01:13:48.394Z,8.36
2023-02-03T01:14:48.372Z,8.40
2023-02-03T01:15:48.403Z,8.40
2023-02-03T01:16:48.475Z,8.39
2023-02-03T01:17:48.354Z,8.47
2023-02-03T01:18:48.414Z,8.40
2023-02-03T01:19:48.346Z,8.50
2023-02-03T01:20:48.336Z,8.54
2023-02-03T01:21:48.319Z,8.45
2023-02-03T01:22:48.312Z,8.51
2023-02-03T01:23:49.311Z,8.57
2023-02-03T01:24:48.306Z,8.40
2023-02-03T01:25:48.337Z,8.45
2023-02-03T01:26:48.362Z,8.60
2023-02-03T01:27:48.369Z,8.48
2023-02-03T01:28:48.261Z,8.47
2023-02-03T01:29:48.297Z,8.47
2023-02-03T01:30:48.492Z,8.39
2023-02-03T01:31:48.387Z,8.48
2023-02-03T01:32:48.245Z,8.44
2023-02-03T01:33:48.246Z,8.39
2023-02-03T01:34:48.242Z,8.36
2023-02-03T01:35:48.258Z,8.39
2023-02-03T01:36:48.213Z,8.53
2023-02-03T01:37:48.228Z,8.58
2023-02-03T01:38:48.231Z,8.60
2023-02-03T01:39:48.217Z,8.54
2023-02-03T01:40:48.208Z,8.62
2023-02-03T01:41:48.278Z,8.44
2023-02-03T01:42:48.215Z,8.48
2023-02-03T01:43:48.209Z,8.55
2023-02-03T01:44:48.193Z,8.58
2023-02-03T01:45:48.240Z,8.53
2023-02-03T01:46:48.175Z,8.50
2023-02-03T01:47:48.231Z,8.57
2023-02-03T01:48:48.144Z,8.53
2023-02-03T01:49:48.156Z,8.51
2023-02-03T01:50:48.151Z,8.47
2023-02-03T01:51:48.169Z,8.54
2023-02-03T01:52:48.211Z,8.62
2023-02-03T01:53:48.186Z,8.51
2023-02-03T01:54:48.156Z,8.55
2023-02-03T01:55:48.125Z,8.53
2023-02-03T01:56:48.123Z,8.53
2023-02-03T01:57:48.127Z,8.60
2023-02-03T01:58:48.090Z,8.65
2023-02-03T01:59:48.120Z,8.63
2023-02-03T02:00:48.082Z,8.62
2023-02-03T02:01:48.182Z,8.54
2023-02-03T02:02:48.209Z,8.58
2023-02-03T02:03:48.074Z,8.66
2023-02-03T02:04:48.060Z,8.73
2023-02-03T02:05:48.068Z,8.68
2023-02-03T02:06:48.094Z,8.62
2023-02-03T02:07:48.063Z,8.60
2023-02-03T02:08:48.044Z,8.68
2023-02-03T02:09:48.058Z,8.66
2023-02-03T02:10:48.054Z,8.65
2023-02-03T02:11:48.062Z,8.63
2023-02-03T02:12:48.005Z,8.71
2023-02-03T02:13:47.999Z,8.93
2023-02-03T02:14:48.013Z,8.97
2023-02-03T02:15:48.073Z,8.90
2023-02-03T02:16:48.022Z,8.91
2023-02-03T02:17:48.007Z,9.06
2023-02-03T02:18:47.977Z,9.02
2023-02-03T02:19:48.036Z,9.06
2023-02-03T02:20:47.989Z,9.04
2023-02-03T02:21:48.028Z,9.09
2023-02-03T02:22:47.995Z,9.10
2023-02-03T02:23:47.967Z,9.10
2023-02-03T02:24:47.948Z,9.13
2023-02-03T02:25:47.967Z,9.01
2023-02-03T02:26:47.968Z,9.12
2023-02-03T02:27:47.984Z,9.12
2023-02-03T02:28:47.920Z,9.23
2023-02-03T02:29:47.909Z,9.40
2023-02-03T02:30:48.033Z,9.27
2023-02-03T02:31:48.067Z,9.30
2023-02-03T02:32:47.927Z,9.30
2023-02-03T02:33:47.915Z,9.16
2023-02-03T02:34:47.919Z,9.23
2023-02-03T02:35:47.896Z,9.20
2023-02-03T02:36:47.926Z,9.13
2023-02-03T02:37:47.869Z,9.16
2023-02-03T02:38:47.882Z,9.02
2023-02-03T02:39:47.904Z,9.15
2023-02-03T02:40:47.911Z,9.12
2023-02-03T02:41:47.897Z,8.84
2023-02-03T02:42:47.856Z,8.90
2023-02-03T02:43:48.875Z,8.91
2023-02-03T02:44:47.864Z,8.91
2023-02-03T02:45:47.877Z,9.04
2023-02-03T02:46:47.831Z,9.04
2023-02-03T02:47:47.852Z,8.91
2023-02-03T02:48:47.821Z,8.76
2023-02-03T02:49:47.905Z,8.79
2023-02-03T02:50:47.843Z,8.84
2023-02-03T02:51:47.808Z,8.87
2023-02-03T02:52:47.795Z,8.76
2023-02-03T02:53:47.786Z,8.87
2023-02-03T02:54:47.809Z,8.93
2023-02-03T02:55:47.794Z,8.91
2023-02-03T02:56:47.795Z,8.93
2023-02-03T02:57:47.784Z,9.04
2023-02-03T02:58:47.763Z,9.09
2023-02-03T02:59:47.812Z,9.05
2023-02-03T03:00:47.759Z,9.04
2023-02-03T03:01:47.814Z,8.88
2023-02-03T03:02:47.781Z,9.01
2023-02-03T03:03:47.745Z,8.87
2023-02-03T03:04:47.819Z,8.87
2023-02-03T03:05:48.753Z,8.63
2023-02-03T03:06:47.731Z,8.66
2023-02-03T03:07:48.751Z,8.75
2023-02-03T03:08:47.712Z,8.81
2023-02-03T03:09:47.709Z,8.87
2023-02-03T03:10:47.694Z,8.90
2023-02-03T03:11:47.709Z,8.86
2023-02-03T03:12:47.695Z,8.78
2023-02-03T03:13:47.686Z,8.88
2023-02-03T03:14:47.671Z,8.87
2023-02-03T03:15:47.717Z,8.73
2023-02-03T03:16:47.684Z,8.72
2023-02-03T03:17:47.666Z,8.76
2023-02-03T03:18:47.694Z,8.81
2023-02-03T03:19:47.667Z,8.86
2023-02-03T03:20:47.649Z,8.84
2023-02-03T03:21:47.631Z,8.79
2023-02-03T03:22:47.642Z,8.83
2023-02-03T03:23:47.645Z,8.76
2023-02-03T03:24:47.666Z,8.72
2023-02-03T03:25:47.643Z,8.78
2023-02-03T03:26:47.614Z,8.88
2023-02-03T03:27:47.661Z,8.76
2023-02-03T03:28:47.622Z,8.72
2023-02-03T03:29:47.637Z,8.83
2023-02-03T03:30:47.695Z,8.83
2023-02-03T03:31:47.620Z,8.79
2023-02-03T03:32:47.621Z,8.90
2023-02-03T03:33:47.601Z,8.93
2023-02-03T03:34:47.666Z,8.99
2023-02-03T03:35:47.575Z,8.91
2023-02-03T03:36:47.548Z,9.04
2023-02-03T03:37:47.560Z,9.02
2023-02-03T03:38:47.548Z,9.13
2023-02-03T03:39:48.542Z,9.06
2023-02-03T03:40:47.530Z,9.13
2023-02-03T03:41:47.545Z,9.09
2023-02-03T03:42:47.591Z,9.12
2023-02-03T03:43:47.525Z,9.15
2023-02-03T03:44:47.514Z,9.01
2023-02-03T03:45:47.523Z,9.01
2023-02-03T03:46:47.572Z,9.18
2023-02-03T03:47:47.503Z,9.24
2023-02-03T03:48:47.485Z,9.18
2023-02-03T03:49:47.530Z,9.02
2023-02-03T03:50:47.525Z,8.81
2023-02-03T03:51:47.476Z,8.86
2023-02-03T03:52:47.456Z,8.88
2023-02-03T03:53:47.470Z,8.78
2023-02-03T03:54:47.463Z,8.88
2023-02-03T03:55:47.473Z,8.96
2023-02-03T03:56:47.460Z,8.90
2023-02-03T03:57:47.459Z,8.94
2023-02-03T03:58:47.439Z,8.97
2023-02-03T03:59:47.444Z,9.01
2023-02-03T04:00:47.440Z,9.18
2023-02-03T04:01:47.578Z,9.30
2023-02-03T04:02:47.537Z,9.20
2023-02-03T04:03:47.431Z,9.10
2023-02-03T04:04:47.406Z,8.84
2023-02-03T04:05:47.397Z,8.99
2023-02-03T04:06:47.398Z,9.05
2023-02-03T04:07:47.433Z,8.75
2023-02-03T04:08:47.381Z,8.91
2023-02-03T04:09:47.367Z,8.86
2023-02-03T04:10:47.399Z,8.79
2023-02-03T04:11:47.373Z,8.83
2023-02-03T04:12:47.361Z,8.84
2023-02-03T04:13:47.375Z,8.72
2023-02-03T04:14:48.157Z,8.69
2023-02-03T04:15:47.384Z,8.72
2023-02-03T04:16:47.333Z,8.84
2023-02-03T04:17:47.374Z,8.72
2023-02-03T04:18:47.328Z,8.87
2023-02-03T04:19:47.332Z,8.94
2023-02-03T04:20:47.349Z,8.87
2023-02-03T04:21:47.325Z,8.84
2023-02-03T04:22:47.330Z,8.90
2023-02-03T04:23:47.333Z,8.76
2023-02-03T04:24:47.316Z,8.75
2023-02-03T04:25:47.344Z,8.86
2023-02-03T04:26:47.289Z,8.88
2023-02-03T04:27:47.380Z,8.88
2023-02-03T04:28:47.287Z,8.96
2023-02-03T04:29:47.271Z,8.84
2023-02-03T04:30:47.298Z,9.04
2023-02-03T04:31:47.316Z,8.94
2023-02-03T04:32:47.279Z,9.06
2023-02-03T04:33:47.233Z,9.10
2023-02-03T04:34:47.266Z,9.15
2023-02-03T04:35:47.237Z,9.21
2023-02-03T04:36:47.223Z,9.18
2023-02-03T04:37:47.253Z,9.30
2023-02-03T04:38:47.219Z,9.21
2023-02-03T04:39:47.189Z,9.25
2023-02-03T04:40:47.749Z,9.40
2023-02-03T04:41:47.209Z,9.34
2023-02-03T04:42:47.231Z,9.42
2023-02-03T04:43:47.180Z,9.40
2023-02-03T04:44:47.233Z,9.38
2023-02-03T04:45:47.217Z,9.38
2023-02-03T04:46:47.160Z,9.13
2023-02-03T04:47:47.186Z,9.20
2023-02-03T04:48:47.189Z,9.15
2023-02-03T04:49:47.143Z,9.24
2023-02-03T04:50:47.125Z,9.30
2023-02-03T04:51:47.096Z,9.30
2023-02-03T04:52:48.768Z,9.30
2023-02-03T04:53:47.128Z,9.35
2023-02-03T04:54:47.097Z,9.42
2023-02-03T04:55:47.097Z,9.30
2023-02-03T04:56:47.073Z,9.34
2023-02-03T04:57:47.109Z,9.27
2023-02-03T04:58:47.085Z,9.18
2023-02-03T04:59:47.056Z,9.23
2023-02-03T05:00:47.092Z,9.20
2023-02-03T05:01:47.159Z,9.27
2023-02-03T05:02:47.133Z,9.30
2023-02-03T05:03:47.061Z,9.23
2023-02-03T05:04:47.052Z,9.32
2023-02-03T05:05:47.100Z,9.40
2023-02-03T05:06:47.027Z,9.43
2023-02-03T05:07:47.021Z,9.34
2023-02-03T05:08:47.066Z,9.39
2023-02-03T05:09:47.055Z,9.27
2023-02-03T05:10:47.032Z,9.28
2023-02-03T05:11:47.010Z,9.28
2023-02-03T05:12:46.997Z,9.46
2023-02-03T05:13:47.001Z,9.40
2023-02-03T05:14:46.990Z,9.56
2023-02-03T05:15:46.994Z,9.45
2023-02-03T05:16:47.066Z,9.23
2023-02-03T05:17:46.986Z,9.25
2023-02-03T05:18:47.011Z,9.24
2023-02-03T05:19:47.012Z,9.25
2023-02-03T05:20:47.100Z,9.25
2023-02-03T05:21:46.967Z,9.15
2023-02-03T05:22:47.758Z,9.27
2023-02-03T05:23:46.947Z,9.32
2023-02-03T05:24:46.936Z,9.35
2023-02-03T05:25:46.936Z,9.27
2023-02-03T05:26:46.923Z,9.39
2023-02-03T05:27:46.907Z,9.39
2023-02-03T05:28:46.900Z,9.38
2023-02-03T05:29:46.922Z,9.35
2023-02-03T05:30:46.892Z,9.50
2023-02-03T05:31:46.973Z,9.32
2023-02-03T05:32:46.876Z,9.32
2023-02-03T05:33:46.910Z,9.28
2023-02-03T05:34:46.947Z,9.39
2023-02-03T05:35:46.881Z,9.57
2023-02-03T05:36:46.880Z,9.68
2023-02-03T05:37:46.840Z,9.68
2023-02-03T05:38:46.915Z,9.57
2023-02-03T05:39:46.851Z,9.38
2023-02-03T05:40:47.843Z,9.39
2023-02-03T05:41:46.831Z,9.46
2023-02-03T05:42:46.824Z,9.46
2023-02-03T05:43:46.858Z,9.52
2023-02-03T05:44:46.813Z,9.42
2023-02-03T05:45:47.055Z,9.46
2023-02-03T05:46:46.804Z,9.38
2023-02-03T05:47:46.806Z,9.27
2023-02-03T05:48:46.777Z,9.20
2023-02-03T05:49:47.748Z,9.43
2023-02-03T05:50:46.898Z,9.21
2023-02-03T05:51:46.785Z,9.12
2023-02-03T05:52:46.791Z,9.23
2023-02-03T05:53:46.805Z,9.23
2023-02-03T05:54:46.750Z,9.21
2023-02-03T05:55:46.791Z,9.35
2023-02-03T05:56:46.772Z,9.28
2023-02-03T05:57:46.772Z,9.25
2023-02-03T05:58:46.737Z,9.23
2023-02-03T05:59:46.721Z,9.28
2023-02-03T06:00:46.710Z,9.15
2023-02-03T06:01:46.753Z,9.32
2023-02-03T06:02:46.718Z,9.45
2023-02-03T06:03:46.894Z,9.48
2023-02-03T06:04:46.786Z,9.67
2023-02-03T06:05:46.687Z,9.63
2023-02-03T06:06:46.683Z,9.60
2023-02-03T06:07:47.682Z,9.53
2023-02-03T06:08:46.728Z,9.67
2023-02-03T06:09:46.706Z,9.68
2023-02-03T06:10:46.663Z,9.57
2023-02-03T06:11:46.723Z,9.56
2023-02-03T06:12:46.659Z,9.40
2023-02-03T06:13:46.638Z,9.40
2023-02-03T06:14:46.657Z,9.40
2023-02-03T06:15:46.630Z,9.34
2023-02-03T06:16:46.673Z,9.28
2023-02-03T06:17:46.611Z,9.34
2023-02-03T06:18:46.639Z,9.39
2023-02-03T06:19:46.631Z,9.56
2023-02-03T06:20:46.654Z,9.48
2023-02-03T06:21:46.610Z,9.38
2023-02-03T06:22:46.596Z,9.45
2023-02-03T06:23:46.711Z,9.52
2023-02-03T06:24:46.584Z,9.63
2023-02-03T06:25:46.647Z,9.58
2023-02-03T06:26:46.589Z,9.60
2023-02-03T06:27:46.636Z,9.63
2023-02-03T06:28:46.604Z,9.75
2023-02-03T06:29:46.588Z,9.82
2023-02-03T06:30:46.709Z,9.71
2023-02-03T06:31:46.707Z,9.85
2023-02-03T06:32:46.548Z,9.82
2023-02-03T06:33:46.543Z,9.73
2023-02-03T06:34:46.611Z,9.70
2023-02-03T06:35:46.554Z,9.75
2023-02-03T06:36:46.525Z,9.70
2023-02-03T06:37:46.636Z,9.94
2023-02-03T06:38:46.504Z,9.96
2023-02-03T06:39:46.560Z,9.86
2023-02-03T06:40:46.522Z,9.78
2023-02-03T06:41:46.519Z,9.78
2023-02-03T06:42:46.476Z,9.82
2023-02-03T06:43:46.501Z,9.89
2023-02-03T06:44:46.486Z,10.12
2023-02-03T06:45:46.512Z,9.88
2023-02-03T06:46:46.477Z,9.71
2023-02-03T06:47:46.465Z,9.85
2023-02-03T06:48:46.476Z,10.01
2023-02-03T06:49:46.646Z,10.03
2023-02-03T06:50:48.513Z,9.94
2023-02-03T06:51:47.489Z,9.96
2023-02-03T06:52:46.444Z,9.89
2023-02-03T06:53:46.421Z,9.89
2023-02-03T06:54:46.463Z,9.83
2023-02-03T06:55:46.428Z,9.75
2023-02-03T06:56:46.442Z,9.85
2023-02-03T06:57:46.428Z,9.88
2023-02-03T06:58:46.407Z,9.88
2023-02-03T06:59:46.429Z,9.97
2023-02-03T07:00:46.390Z,9.99
2023-02-03T07:01:46.458Z,9.85
2023-02-03T07:02:46.477Z,9.88
2023-02-03T07:03:46.386Z,9.85
2023-02-03T07:04:46.406Z,9.89
2023-02-03T07:05:46.355Z,9.88
2023-02-03T07:06:46.412Z,9.89
2023-02-03T07:07:46.518Z,9.91
2023-02-03T07:08:46.343Z,10.06
2023-02-03T07:09:46.361Z,10.09
2023-02-03T07:10:46.348Z,9.91
2023-02-03T07:11:46.358Z,9.99
2023-02-03T07:12:46.319Z,10.10
2023-02-03T07:13:46.317Z,10.06
2023-02-03T07:14:46.341Z,9.89
2023-02-03T07:15:46.357Z,10.06
2023-02-03T07:16:46.340Z,10.04
2023-02-03T07:17:46.281Z,10.04
2023-02-03T07:18:47.921Z,10.07
2023-02-03T07:19:47.279Z,10.12
2023-02-03T07:20:46.316Z,10.15
2023-02-03T07:21:46.292Z,10.07
2023-02-03T07:22:46.290Z,10.14
2023-02-03T07:23:46.288Z,10.28
2023-02-03T07:24:46.288Z,10.18
2023-02-03T07:25:46.239Z,10.04
2023-02-03T07:26:46.269Z,10.14
2023-02-03T07:27:47.308Z,10.15
2023-02-03T07:28:46.239Z,10.25
2023-02-03T07:29:46.250Z,10.19
2023-02-03T07:30:46.398Z,10.24
2023-02-03T07:31:46.440Z,10.06
2023-02-03T07:32:46.218Z,10.06
2023-02-03T07:33:46.232Z,9.88
2023-02-03T07:34:46.206Z,9.89
2023-02-03T07:35:46.192Z,9.91
2023-02-03T07:36:46.196Z,9.93
2023-02-03T07:37:46.222Z,9.91
2023-02-03T07:38:46.199Z,9.89
2023-02-03T07:39:46.194Z,9.86
2023-02-03T07:40:46.153Z,9.85
2023-02-03T07:41:46.176Z,9.71
2023-02-03T07:42:46.165Z,9.88
2023-02-03T07:43:46.190Z,9.94
2023-02-03T07:44:46.143Z,9.99
2023-02-03T07:45:46.129Z,9.99
2023-02-03T07:46:46.189Z,10.09
2023-02-03T07:47:46.163Z,9.94
2023-02-03T07:48:46.127Z,10.14
2023-02-03T07:49:46.133Z,10.09
2023-02-03T07:50:46.122Z,9.99
2023-02-03T07:51:46.743Z,9.99
2023-02-03T07:52:46.103Z,10.03
2023-02-03T07:53:46.095Z,10.10
2023-02-03T07:54:46.077Z,10.28
2023-02-03T07:55:46.124Z,10.22
2023-02-03T07:56:46.090Z,10.28
2023-02-03T07:57:46.051Z,10.22
2023-02-03T07:58:46.083Z,10.14
2023-02-03T07:59:46.096Z,10.01
2023-02-03T08:00:46.056Z,10.12
2023-02-03T08:01:46.257Z,10.25
2023-02-03T08:02:46.023Z,10.21
2023-02-03T08:03:46.042Z,10.15
2023-02-03T08:04:46.112Z,10.10
2023-02-03T08:05:46.009Z,10.17
2023-02-03T08:06:47.025Z,10.14
2023-02-03T08:07:46.014Z,10.24
2023-02-03T08:08:45.996Z,10.39
2023-02-03T08:09:46.003Z,10.24
2023-02-03T08:10:45.984Z,10.06
2023-02-03T08:11:46.029Z,10.18
2023-02-03T08:12:46.000Z,10.12
2023-02-03T08:13:45.965Z,10.24
2023-02-03T08:14:45.982Z,10.30
2023-02-03T08:15:46.017Z,10.25
2023-02-03T08:16:45.952Z,10.25
2023-02-03T08:17:45.962Z,10.22
2023-02-03T08:18:45.947Z,10.22
2023-02-03T08:19:45.947Z,10.10
2023-02-03T08:20:45.936Z,10.19
2023-02-03T08:21:45.951Z,10.28
2023-02-03T08:22:45.940Z,10.06
2023-02-03T08:23:45.913Z,10.24
2023-02-03T08:24:45.907Z,10.28
2023-02-03T08:25:45.910Z,10.30
2023-02-03T08:26:45.896Z,10.34
2023-02-03T08:27:45.998Z,10.44
2023-02-03T08:28:45.890Z,10.40
2023-02-03T08:29:45.929Z,10.36
2023-02-03T08:30:45.921Z,10.34
2023-02-03T08:31:45.958Z,10.36
2023-02-03T08:32:45.853Z,10.32
2023-02-03T08:33:45.852Z,10.24
2023-02-03T08:34:45.856Z,10.46
2023-02-03T08:35:45.854Z,10.39
2023-02-03T08:36:45.822Z,10.47
2023-02-03T08:37:45.839Z,10.53
2023-02-03T08:38:45.850Z,10.60
2023-02-03T08:39:45.825Z,10.53
2023-02-03T08:40:45.841Z,10.58
2023-02-03T08:41:45.829Z,10.55
2023-02-03T08:42:45.796Z,10.51
2023-02-03T08:43:45.802Z,10.40
2023-02-03T08:44:45.800Z,10.40
2023-02-03T08:45:45.886Z,10.44
2023-02-03T08:46:45.783Z,10.47
2023-02-03T08:47:45.776Z,10.62
2023-02-03T08:48:45.769Z,10.63
2023-02-03T08:49:45.847Z,10.53
2023-02-03T08:50:45.795Z,10.47
2023-02-03T08:51:45.740Z,10.60
2023-02-03T08:52:45.765Z,10.66
2023-02-03T08:53:45.767Z,10.60
2023-02-03T08:54:45.747Z,10.62
2023-02-03T08:55:45.743Z,10.65
2023-02-03T08:56:45.711Z,10.58
2023-02-03T08:57:45.732Z,10.56
2023-02-03T08:58:45.750Z,10.74
2023-02-03T08:59:45.716Z,10.59
2023-02-03T09:00:45.730Z,10.59
2023-02-03T09:01:45.725Z,10.70
2023-02-03T09:02:45.694Z,10.84
2023-02-03T09:03:45.698Z,10.73
2023-02-03T09:04:45.742Z,10.71
2023-02-03T09:05:45.696Z,10.70
2023-02-03T09:06:45.687Z,10.68
2023-02-03T09:07:45.677Z,10.51
2023-02-03T09:08:45.725Z,10.33
2023-02-03T09:09:45.666Z,10.39
2023-02-03T09:10:45.638Z,10.26
2023-02-03T09:11:45.687Z,10.36
2023-02-03T09:12:45.649Z,10.19
2023-02-03T09:13:46.308Z,10.34
2023-02-03T09:14:45.669Z,10.32
2023-02-03T09:15:45.609Z,10.32
2023-02-03T09:16:45.671Z,10.40
2023-02-03T09:17:45.604Z,10.42
2023-02-03T09:18:45.603Z,10.51
2023-02-03T09:19:45.625Z,10.52
2023-02-03T09:20:45.610Z,10.46
2023-02-03T09:21:46.154Z,10.52
2023-02-03T09:22:45.593Z,10.52
2023-02-03T09:23:45.562Z,10.51
2023-02-03T09:24:45.592Z,10.46
2023-02-03T09:25:48.527Z,10.51
2023-02-03T09:26:46.567Z,10.42
2023-02-03T09:27:45.589Z,10.46
2023-02-03T09:28:45.547Z,10.46
2023-02-03T09:29:45.562Z,10.37
2023-02-03T09:30:45.576Z,10.37
2023-02-03T09:31:45.602Z,10.55
2023-02-03T09:32:45.521Z,10.52
2023-02-03T09:33:45.520Z,10.44
2023-02-03T09:34:45.523Z,10.39
2023-02-03T09:35:45.500Z,10.37
2023-02-03T09:36:45.481Z,10.55
2023-02-03T09:37:45.496Z,10.65
2023-02-03T09:38:45.498Z,10.59
2023-02-03T09:39:45.460Z,10.63
2023-02-03T09:40:45.456Z,10.59
2023-02-03T09:41:45.485Z,10.70
2023-02-03T09:42:45.445Z,10.70
2023-02-03T09:43:45.478Z,10.86
2023-02-03T09:44:45.455Z,10.88
2023-02-03T09:45:45.469Z,10.77
2023-02-03T09:46:45.434Z,10.80
2023-02-03T09:47:45.424Z,10.78
2023-02-03T09:48:45.427Z,10.77
2023-02-03T09:49:45.433Z,10.77
2023-02-03T09:50:45.406Z,10.84
2023-02-03T09:51:45.391Z,10.91
2023-02-03T09:52:45.403Z,10.89
2023-02-03T09:53:45.488Z,10.80
2023-02-03T09:54:45.380Z,10.68
2023-02-03T09:55:45.385Z,10.78
2023-02-03T09:56:45.488Z,10.78
2023-02-03T09:57:45.382Z,10.77
2023-02-03T09:58:45.361Z,10.86
2023-02-03T09:59:45.368Z,10.76
2023-02-03T10:00:45.342Z,10.76
2023-02-03T10:01:45.337Z,10.80
2023-02-03T10:02:45.355Z,10.86
2023-02-03T10:03:45.419Z,10.86
2023-02-03T10:04:45.342Z,11.03
2023-02-03T10:05:45.319Z,10.94
2023-02-03T10:06:45.297Z,11.01
2023-02-03T10:07:45.330Z,10.88
2023-02-03T10:08:45.279Z,10.92
2023-02-03T10:09:45.353Z,10.88
2023-02-03T10:10:45.269Z,10.95
2023-02-03T10:11:45.272Z,10.81
2023-02-03T10:12:45.252Z,10.86
2023-02-03T10:13:45.306Z,11.01
2023-02-03T10:14:45.248Z,10.99
2023-02-03T10:15:45.256Z,10.98
2023-02-03T10:16:45.312Z,11.11
2023-02-03T10:17:46.322Z,11.03
2023-02-03T10:18:45.227Z,10.95
2023-02-03T10:19:45.217Z,10.81
2023-02-03T10:20:45.225Z,10.94
2023-02-03T10:21:45.262Z,11.06
2023-02-03T10:22:45.238Z,11.07
2023-02-03T10:23:45.204Z,11.11
2023-02-03T10:24:45.191Z,11.17
2023-02-03T10:25:45.191Z,11.25
2023-02-03T10:26:45.205Z,11.24
2023-02-03T10:27:45.191Z,11.07
2023-02-03T10:28:45.171Z,11.13
2023-02-03T10:29:45.224Z,10.89
2023-02-03T10:30:45.529Z,10.99
2023-02-03T10:31:45.245Z,10.99
2023-02-03T10:32:45.148Z,11.07
2023-02-03T10:33:45.142Z,11.06
2023-02-03T10:34:45.108Z,11.27
2023-02-03T10:35:45.115Z,11.24
2023-02-03T10:36:46.125Z,11.03
2023-02-03T10:37:45.129Z,11.16
2023-02-03T10:38:45.143Z,11.13
2023-02-03T10:39:45.155Z,11.17
2023-02-03T10:40:45.088Z,11.25
2023-02-03T10:41:45.069Z,11.24
2023-02-03T10:42:45.098Z,11.19
2023-02-03T10:43:45.086Z,11.14
2023-02-03T10:44:45.082Z,11.14
2023-02-03T10:45:45.065Z,11.27
2023-02-03T10:46:45.171Z,11.19
2023-02-03T10:47:45.042Z,11.19
2023-02-03T10:48:45.048Z,11.28
2023-02-03T10:49:45.030Z,11.17
2023-02-03T10:50:45.058Z,11.24
2023-02-03T10:51:45.016Z,11.24
2023-02-03T10:52:44.998Z,11.34
2023-02-03T10:53:45.026Z,11.27
2023-02-03T10:54:45.024Z,11.20
2023-02-03T10:55:45.023Z,11.19
2023-02-03T10:56:44.972Z,11.21
2023-02-03T10:57:44.976Z,11.32
2023-02-03T10:58:45.032Z,11.32
2023-02-03T10:59:44.950Z,11.25
2023-02-03T11:00:44.951Z,11.20
2023-02-03T11:01:44.998Z,11.39
2023-02-03T11:02:44.976Z,11.35
2023-02-03T11:03:44.956Z,11.32
2023-02-03T11:04:44.947Z,11.19
2023-02-03T11:05:44.926Z,11.24
2023-02-03T11:06:45.030Z,11.25
2023-02-03T11:07:44.906Z,11.27
2023-02-03T11:08:44.915Z,11.10
2023-02-03T11:09:44.920Z,11.13
2023-02-03T11:10:44.903Z,11.14
2023-02-03T11:11:44.913Z,11.14
2023-02-03T11:12:44.923Z,11.09
2023-02-03T11:13:44.860Z,11.17
2023-02-03T11:14:44.924Z,11.19
2023-02-03T11:15:44.861Z,11.07
2023-02-03T11:16:44.894Z,11.21
2023-02-03T11:17:44.852Z,11.27
2023-02-03T11:18:44.837Z,11.35
2023-02-03T11:19:44.838Z,11.39
2023-02-03T11:20:44.884Z,11.59
2023-02-03T11:21:44.809Z,11.52
2023-02-03T11:22:45.792Z,11.47
2023-02-03T11:23:44.802Z,11.39
2023-02-03T11:24:44.809Z,11.39
2023-02-03T11:25:44.819Z,11.28
2023-02-03T11:26:44.781Z,11.38
2023-02-03T11:27:44.860Z,11.43
2023-02-03T11:28:44.753Z,11.38
2023-02-03T11:29:44.770Z,11.56
2023-02-03T11:30:44.876Z,11.62
2023-02-03T11:31:44.791Z,11.62
2023-02-03T11:32:44.744Z,11.57
2023-02-03T11:33:44.737Z,11.64
2023-02-03T11:34:44.779Z,11.70
2023-02-03T11:35:44.740Z,11.61
2023-02-03T11:36:44.724Z,11.77
2023-02-03T11:37:44.722Z,11.65
2023-02-03T11:38:44.792Z,11.80
2023-02-03T11:39:44.673Z,11.70
2023-02-03T11:40:44.732Z,11.61
2023-02-03T11:41:44.677Z,11.64
2023-02-03T11:42:44.690Z,11.62
2023-02-03T11:43:44.688Z,11.49
2023-02-03T11:44:44.655Z,11.35
2023-02-03T11:45:44.658Z,11.44
2023-02-03T11:46:44.693Z,11.52
2023-02-03T11:47:44.698Z,11.43
2023-02-03T11:48:44.616Z,11.47
2023-02-03T11:49:44.610Z,11.52
2023-02-03T11:50:44.634Z,11.52
2023-02-03T11:51:44.629Z,11.68
2023-02-03T11:52:44.606Z,11.71
2023-02-03T11:53:56.175Z,11.54
2023-02-03T11:54:46.626Z,11.49
2023-02-03T11:55:44.644Z,11.62
2023-02-03T11:56:44.605Z,11.67
2023-02-03T11:57:44.574Z,11.70
2023-02-03T11:58:44.579Z,11.59
2023-02-03T11:59:45.264Z,11.65
2023-02-03T12:00:44.571Z,11.80
2023-02-03T12:01:44.607Z,11.89
2023-02-03T12:02:44.575Z,11.80
2023-02-03T12:03:44.524Z,11.72
2023-02-03T12:04:44.569Z,11.75
2023-02-03T12:05:44.626Z,11.57
2023-02-03T12:06:44.505Z,11.71
2023-02-03T12:07:44.608Z,11.67
2023-02-03T12:08:44.515Z,11.52
2023-02-03T12:09:45.255Z,11.54
2023-02-03T12:10:44.533Z,11.56
2023-02-03T12:11:44.463Z,11.43
2023-02-03T12:12:44.449Z,11.65
2023-02-03T12:13:45.461Z,11.65
2023-02-03T12:14:44.506Z,11.74
2023-02-03T12:15:44.457Z,11.65
2023-02-03T12:16:44.453Z,11.68
2023-02-03T12:17:44.438Z,11.52
2023-02-03T12:18:44.426Z,11.44
2023-02-03T12:19:44.439Z,11.54
2023-02-03T12:20:44.400Z,11.65
2023-02-03T12:21:44.405Z,11.68
2023-02-03T12:22:44.398Z,11.75
2023-02-03T12:23:44.440Z,11.46
2023-02-03T12:24:44.386Z,11.53
2023-02-03T12:25:44.369Z,11.70
2023-02-03T12:26:44.402Z,11.64
2023-02-03T12:27:44.374Z,11.71
2023-02-03T12:28:44.382Z,11.71
2023-02-03T12:29:44.353Z,11.62
2023-02-03T12:30:44.455Z,11.68
2023-02-03T12:31:44.373Z,11.64
2023-02-03T12:32:44.335Z,11.59
2023-02-03T12:33:44.459Z,11.68
2023-02-03T12:34:45.710Z,11.68
2023-02-03T12:35:44.299Z,11.72
2023-02-03T12:36:44.303Z,11.65
2023-02-03T12:37:44.332Z,11.64
2023-02-03T12:38:44.284Z,11.47
2023-02-03T12:39:44.384Z,11.57
2023-02-03T12:40:44.280Z,11.39
2023-02-03T12:41:44.255Z,11.46
2023-02-03T12:42:44.253Z,11.70
2023-02-03T12:43:44.250Z,11.54
2023-02-03T12:44:44.236Z,11.72
2023-02-03T12:45:44.288Z,11.70
2023-02-03T12:46:44.217Z,11.77
2023-02-03T12:47:44.249Z,11.80
2023-02-03T12:48:44.207Z,12.02
2023-02-03T12:49:44.256Z,12.02
2023-02-03T12:50:44.764Z,12.01
2023-02-03T12:51:44.233Z,12.24
2023-02-03T12:52:44.187Z,12.09
2023-02-03T12:53:44.179Z,11.96
2023-02-03T12:54:44.174Z,11.83
2023-02-03T12:55:44.215Z,11.77
2023-02-03T12:56:44.157Z,11.75
2023-02-03T12:57:44.159Z,11.77
2023-02-03T12:58:44.139Z,11.86
2023-02-03T12:59:44.140Z,11.93
2023-02-03T13:00:44.232Z,11.77
2023-02-03T13:01:44.151Z,12.02
2023-02-03T13:02:44.753Z,11.86
2023-02-03T13:03:44.121Z,11.83
2023-02-03T13:04:44.122Z,11.85
2023-02-03T13:05:44.104Z,11.77
2023-02-03T13:06:44.107Z,11.78
2023-02-03T13:07:44.097Z,12.01